Time;durP1;ratioP1;P1;durP2;ratioP2;P2;SDS_P1;SDS_P2;PMS_P1;PMS_P2;Temp;Humidity;BMP_temperature;BMP_pressure;BME280_temperature;BME280_humidity;BME280_pressure;Samples;Min_cycle;Max_cycle;Signal;HPM_P1;HPM_P2
2022/09/08 00:00:24;;;;;;;4.30;2.05;;;18.00;99.90;;;;;;5071059;28;20320;-79
2022/09/08 00:02:51;;;;;;;2.65;2.10;;;18.00;99.90;;;;;;5072188;28;20205;-80
2022/09/08 00:05:23;;;;;;;5.15;2.35;;;18.00;99.90;;;;;;5072426;28;20284;-80
2022/09/08 00:07:52;;;;;;;4.88;2.03;;;18.00;99.90;;;;;;5071977;28;20278;-80
2022/09/08 00:10:19;;;;;;;3.55;2.00;;;18.00;99.90;;;;;;5071643;28;20201;-79
2022/09/08 00:12:48;;;;;;;4.40;2.10;;;17.90;99.90;;;;;;5072667;28;20217;-80
2022/09/08 00:15:15;;;;;;;4.45;2.38;;;18.00;99.90;;;;;;5071880;28;20207;-80
2022/09/08 00:17:42;;;;;;;5.68;1.90;;;17.90;99.90;;;;;;5071644;28;20297;-79
2022/09/08 00:20:10;;;;;;;2.67;1.90;;;17.90;99.90;;;;;;5071452;28;20197;-79
2022/09/08 00:22:38;;;;;;;5.70;2.63;;;17.90;99.90;;;;;;5051689;28;20342;-79
2022/09/08 00:25:07;;;;;;;5.43;1.90;;;17.90;99.90;;;;;;5058526;28;20208;-80
2022/09/08 00:27:34;;;;;;;4.85;2.50;;;17.90;99.90;;;;;;5072065;28;20261;-80
2022/09/08 00:30:00;;;;;;;4.65;2.10;;;17.90;99.90;;;;;;5071394;28;20235;-77
2022/09/08 00:32:27;;;;;;;5.93;2.00;;;17.80;99.90;;;;;;5072254;28;20303;-79
2022/09/08 00:34:54;;;;;;;5.60;1.83;;;17.80;99.90;;;;;;5072124;28;20206;-79
2022/09/08 00:37:22;;;;;;;4.53;2.00;;;17.80;99.90;;;;;;5070241;28;20209;-79
2022/09/08 00:39:50;;;;;;;4.32;2.25;;;17.80;99.90;;;;;;5071979;28;20189;-79
2022/09/08 00:42:17;;;;;;;7.78;2.63;;;17.80;99.90;;;;;;5070575;28;20234;-76
2022/09/08 00:44:48;;;;;;;6.35;2.20;;;17.80;99.90;;;;;;5072452;28;20212;-77
2022/09/08 00:47:20;;;;;;;8.18;3.13;;;17.80;99.90;;;;;;5071497;28;20636;-77
2022/09/08 00:49:50;;;;;;;5.30;3.17;;;17.80;99.90;;;;;;5071174;28;20193;-77
2022/09/08 00:52:18;;;;;;;6.63;3.92;;;17.80;99.90;;;;;;5071677;28;20231;-78
2022/09/08 00:54:45;;;;;;;6.22;4.22;;;17.80;99.90;;;;;;5071968;28;20295;-79
2022/09/08 00:57:13;;;;;;;7.63;4.07;;;17.80;99.90;;;;;;5070530;28;20284;-78
2022/09/08 00:59:41;;;;;;;6.55;3.88;;;17.80;99.90;;;;;;5071727;28;20517;-78
2022/09/08 01:02:24;;;;;;;7.07;4.45;;;17.80;99.90;;;;;;5070356;28;20193;-78
2022/09/08 01:04:57;;;;;;;6.65;3.88;;;17.80;99.90;;;;;;5070813;28;20531;-78
2022/09/08 01:13:26;;;;;;;6.10;3.60;;;17.90;99.90;;;;;;5070276;28;20471;-78
2022/09/08 01:15:55;;;;;;;6.35;3.47;;;18.00;99.90;;;;;;5071374;28;20209;-78
2022/09/08 01:18:22;;;;;;;6.93;3.40;;;18.00;99.90;;;;;;5071277;28;20197;-78
2022/09/08 01:20:56;;;;;;;9.43;4.72;;;18.00;99.90;;;;;;5071139;28;20485;-77
2022/09/08 01:23:54;;;;;;;7.32;3.78;;;17.90;99.90;;;;;;5070983;28;20316;-78
2022/09/08 01:26:36;;;;;;;6.35;3.53;;;17.90;99.90;;;;;;5071165;28;20185;-78
2022/09/08 01:29:07;;;;;;;4.85;3.42;;;17.90;99.90;;;;;;5070756;28;20201;-78
2022/09/08 01:31:37;;;;;;;7.10;3.75;;;17.80;99.90;;;;;;5070957;28;20568;-78
2022/09/08 01:34:04;;;;;;;5.63;3.40;;;17.80;99.90;;;;;;5071544;28;20207;-77
2022/09/08 01:36:31;;;;;;;6.07;3.35;;;17.80;99.90;;;;;;5071103;28;20220;-78
2022/09/08 01:38:58;;;;;;;6.35;3.60;;;17.80;99.90;;;;;;5070871;28;20586;-77
2022/09/08 01:41:25;;;;;;;5.65;3.00;;;17.80;99.90;;;;;;5077330;22;20216;-78
2022/09/08 01:43:51;;;;;;;6.03;3.10;;;17.70;99.90;;;;;;5031152;28;20229;-78
2022/09/08 01:46:20;;;;;;;7.40;3.20;;;17.70;99.90;;;;;;5029438;28;20623;-77
2022/09/08 01:48:47;;;;;;;6.00;3.35;;;17.70;99.90;;;;;;5031460;28;20217;-78
2022/09/08 01:51:13;;;;;;;5.30;2.90;;;17.70;99.90;;;;;;5031221;28;20237;-78
2022/09/08 01:53:40;;;;;;;6.38;3.05;;;17.70;99.90;;;;;;5029858;28;20756;-78
2022/09/08 01:56:07;;;;;;;7.00;2.42;;;17.70;99.90;;;;;;5031354;28;20308;-78
2022/09/08 01:58:35;;;;;;;7.85;2.63;;;17.70;99.90;;;;;;5031627;28;20206;-78
2022/09/08 02:01:02;;;;;;;3.20;2.00;;;17.70;99.90;;;;;;5032447;28;20194;-78
2022/09/08 02:03:30;;;;;;;4.00;2.30;;;17.70;99.90;;;;;;5034570;28;20213;-78
2022/09/08 02:06:01;;;;;;;3.83;2.28;;;17.70;99.90;;;;;;5029921;28;20206;-79
2022/09/08 02:08:28;;;;;;;4.00;2.45;;;17.70;99.90;;;;;;5031060;28;20214;-78
2022/09/08 02:10:57;;;;;;;5.88;2.83;;;17.70;99.90;;;;;;5031559;28;20284;-78
2022/09/08 02:13:24;;;;;;;6.60;2.38;;;17.70;99.90;;;;;;5018787;28;20214;-77
2022/09/08 02:15:51;;;;;;;5.07;2.20;;;17.70;99.90;;;;;;5023343;28;20704;-78
2022/09/08 02:18:18;;;;;;;4.53;2.83;;;17.60;99.90;;;;;;5034713;28;20586;-83
2022/09/08 02:20:46;;;;;;;5.28;3.25;;;17.70;99.90;;;;;;5030779;28;20567;-78
2022/09/08 02:23:13;;;;;;;4.80;2.58;;;17.60;99.90;;;;;;5015012;28;20199;-78
2022/09/08 02:25:40;;;;;;;5.00;2.67;;;17.60;99.90;;;;;;5014359;28;20572;-77
2022/09/08 02:28:07;;;;;;;7.05;3.10;;;17.60;99.90;;;;;;5033928;28;20268;-78
2022/09/08 02:30:34;;;;;;;5.30;3.38;;;17.50;99.90;;;;;;5034469;28;20219;-77
2022/09/08 02:33:01;;;;;;;3.97;3.00;;;17.50;99.90;;;;;;5034700;28;20225;-77
2022/09/08 02:35:28;;;;;;;4.05;2.72;;;17.50;99.90;;;;;;5023545;28;20203;-78
2022/09/08 02:37:57;;;;;;;3.70;2.53;;;17.50;99.90;;;;;;5014585;28;20640;-78
2022/09/08 02:40:23;;;;;;;7.13;2.88;;;17.50;99.90;;;;;;5014494;28;20195;-78
2022/09/08 02:42:50;;;;;;;5.07;2.92;;;17.50;99.90;;;;;;5013536;28;20234;-78
2022/09/08 02:45:17;;;;;;;11.38;3.42;;;17.50;99.90;;;;;;5033581;28;20215;-77
2022/09/08 02:47:44;;;;;;;5.80;2.90;;;17.50;99.90;;;;;;5022352;28;20249;-80
2022/09/08 02:50:11;;;;;;;5.32;2.70;;;17.50;99.90;;;;;;5013843;28;20592;-78
2022/09/08 02:52:37;;;;;;;6.22;2.63;;;17.50;99.90;;;;;;5013657;28;20314;-78
2022/09/08 02:55:06;;;;;;;6.38;3.00;;;17.50;99.90;;;;;;5014431;28;20214;-78
2022/09/08 02:57:33;;;;;;;6.90;3.00;;;17.50;99.90;;;;;;5013609;28;20615;-78
2022/09/08 03:00:00;;;;;;;6.95;3.65;;;17.60;99.90;;;;;;5014209;28;20235;-78
2022/09/08 03:02:27;;;;;;;5.68;4.35;;;17.60;99.90;;;;;;5032712;28;20677;-78
2022/09/08 03:04:54;;;;;;;4.78;3.95;;;17.60;99.90;;;;;;5033185;28;20248;-78
2022/09/08 03:07:21;;;;;;;6.13;3.53;;;17.60;99.90;;;;;;5032066;28;20212;-77
2022/09/08 03:09:49;;;;;;;10.48;4.65;;;17.60;99.90;;;;;;5033793;28;20502;-78
2022/09/08 03:12:17;;;;;;;6.78;4.20;;;17.60;99.90;;;;;;5032342;28;20298;-78
2022/09/08 03:14:44;;;;;;;9.60;3.90;;;17.60;99.90;;;;;;5015559;28;20243;-78
2022/09/08 03:17:10;;;;;;;8.05;4.30;;;17.60;99.90;;;;;;5013374;28;20199;-77
2022/09/08 03:19:38;;;;;;;4.78;3.85;;;17.60;99.90;;;;;;5013771;28;20202;-78
2022/09/08 03:22:05;;;;;;;4.32;3.80;;;17.70;99.90;;;;;;5013088;28;20207;-78
2022/09/08 03:24:34;;;;;;;4.70;4.00;;;17.70;99.90;;;;;;5013281;28;20199;-78
2022/09/08 03:27:01;;;;;;;10.30;4.95;;;17.70;99.90;;;;;;5013003;28;20214;-78
2022/09/08 03:29:31;;;;;;;5.90;5.10;;;17.70;99.90;;;;;;5013959;28;20226;-78
2022/09/08 03:31:58;;;;;;;11.27;5.95;;;17.70;99.90;;;;;;5012136;28;20223;-78
2022/09/08 03:34:25;;;;;;;10.45;5.30;;;17.70;99.90;;;;;;5013507;28;20227;-78
2022/09/08 03:36:52;;;;;;;10.43;6.18;;;17.70;99.90;;;;;;5024112;28;20598;-77
2022/09/08 03:39:19;;;;;;;9.63;5.40;;;17.70;99.90;;;;;;5032621;28;20230;-79
2022/09/08 03:41:46;;;;;;;11.25;5.90;;;17.70;99.90;;;;;;5031822;28;20312;-78
2022/09/08 03:44:13;;;;;;;14.23;7.50;;;17.70;99.90;;;;;;5032994;28;20210;-78
2022/09/08 03:46:41;;;;;;;11.98;6.25;;;17.70;99.90;;;;;;5032557;28;20674;-78
2022/09/08 03:49:08;;;;;;;12.85;7.68;;;17.70;99.90;;;;;;5030264;28;20195;-77
2022/09/08 03:51:35;;;;;;;11.35;7.57;;;17.70;99.90;;;;;;5013272;28;20204;-78
2022/09/08 03:56:43;;;;;;;9.30;5.75;;;17.70;99.90;;;;;;4963929;28;20215;-79
2022/09/08 03:59:10;;;;;;;6.10;5.35;;;17.70;99.90;;;;;;4993182;28;20515;-78
2022/09/08 04:01:37;;;;;;;11.02;6.28;;;17.70;99.90;;;;;;5000175;28;20210;-79
2022/09/08 04:04:06;;;;;;;10.93;6.90;;;17.70;99.90;;;;;;5013145;28;20286;-79
2022/09/08 04:06:34;;;;;;;8.57;6.07;;;17.70;99.90;;;;;;5011859;28;20207;-79
2022/09/08 04:09:00;;;;;;;7.63;5.63;;;17.70;99.90;;;;;;5012520;28;20203;-79
2022/09/08 04:11:27;;;;;;;7.90;6.22;;;17.70;99.90;;;;;;5012211;28;20657;-79
2022/09/08 04:13:54;;;;;;;10.25;7.43;;;17.70;99.90;;;;;;5011727;28;20215;-80
2022/09/08 04:16:21;;;;;;;8.45;5.97;;;17.70;99.90;;;;;;5032360;28;20220;-79
2022/09/08 04:18:48;;;;;;;15.73;8.90;;;17.70;99.90;;;;;;5031974;28;20207;-79
2022/09/08 04:21:16;;;;;;;9.88;7.93;;;17.70;99.90;;;;;;5031160;28;20209;-79
2022/09/08 04:23:43;;;;;;;13.10;8.70;;;17.70;99.90;;;;;;5031507;28;20201;-81
2022/09/08 04:26:12;;;;;;;13.90;10.27;;;17.70;99.90;;;;;;5030586;28;20218;-80
2022/09/08 04:28:40;;;;;;;14.68;9.88;;;17.70;99.90;;;;;;5011680;28;20207;-80
2022/09/08 04:31:09;;;;;;;12.63;8.48;;;17.70;99.90;;;;;;5012674;28;20535;-80
2022/09/08 04:33:36;;;;;;;9.13;8.23;;;17.70;99.90;;;;;;5011387;28;20223;-79
2022/09/08 04:36:06;;;;;;;13.93;9.50;;;17.70;99.90;;;;;;5011720;28;20286;-79
2022/09/08 04:38:35;;;;;;;9.88;8.10;;;17.70;99.90;;;;;;5028735;28;20213;-79
2022/09/08 04:41:04;;;;;;;13.25;9.82;;;17.70;99.90;;;;;;5032378;28;20198;-79
2022/09/08 04:43:31;;;;;;;12.13;8.88;;;17.70;99.90;;;;;;5020221;28;20530;-79
2022/09/08 04:46:01;;;;;;;14.38;9.85;;;17.70;99.90;;;;;;5012630;28;20214;-79
2022/09/08 04:48:29;;;;;;;12.90;9.38;;;17.70;99.90;;;;;;5011118;28;20214;-78
2022/09/08 04:50:56;;;;;;;17.23;10.57;;;17.70;99.90;;;;;;5012198;28;20592;-79
2022/09/08 04:53:24;;;;;;;16.80;12.18;;;17.70;99.90;;;;;;5011991;28;20226;-80
2022/09/08 04:55:52;;;;;;;17.13;11.15;;;17.70;99.90;;;;;;5011322;28;20281;-80
2022/09/08 04:58:19;;;;;;;12.18;9.52;;;17.70;99.90;;;;;;5011820;28;20569;-79
2022/09/08 05:00:46;;;;;;;16.20;11.27;;;17.70;99.90;;;;;;5013194;28;20290;-78
2022/09/08 05:03:13;;;;;;;17.55;11.90;;;17.70;99.90;;;;;;5012026;28;20199;-80
2022/09/08 05:05:40;;;;;;;14.98;11.15;;;17.70;99.90;;;;;;5012305;28;20199;-81
2022/09/08 05:08:07;;;;;;;18.00;10.30;;;17.60;99.90;;;;;;5012563;28;20203;-80
2022/09/08 05:10:34;;;;;;;16.35;10.63;;;17.70;99.90;;;;;;5011481;28;20227;-81
2022/09/08 05:13:03;;;;;;;15.10;10.88;;;17.70;99.90;;;;;;5016671;28;20218;-82
2022/09/08 05:15:30;;;;;;;14.50;11.23;;;17.70;99.90;;;;;;5032182;28;20205;-80
2022/09/08 05:17:57;;;;;;;16.50;11.02;;;17.70;99.90;;;;;;5031524;28;20199;-81
2022/09/08 05:20:24;;;;;;;13.05;10.40;;;17.60;99.90;;;;;;5030675;28;20275;-82
2022/09/08 05:22:51;;;;;;;16.13;9.70;;;17.60;99.90;;;;;;5032533;28;20198;-83
2022/09/08 05:25:17;;;;;;;15.65;9.90;;;17.60;99.90;;;;;;5032217;28;20207;-82
2022/09/08 05:27:44;;;;;;;17.63;11.13;;;17.60;99.90;;;;;;5031482;28;20206;-82
2022/09/08 05:30:14;;;;;;;14.45;11.60;;;17.60;99.90;;;;;;5032623;28;20630;-83
2022/09/08 05:32:41;;;;;;;21.02;10.48;;;17.60;99.90;;;;;;5026229;28;20223;-82
2022/09/08 05:35:08;;;;;;;15.00;10.60;;;17.60;99.90;;;;;;5015591;28;20202;-82
2022/09/08 05:37:35;;;;;;;17.20;11.85;;;17.60;99.90;;;;;;5015722;28;20203;-82
2022/09/08 05:40:02;;;;;;;16.90;11.50;;;17.60;99.90;;;;;;5015173;28;20203;-81
2022/09/08 05:42:30;;;;;;;18.63;11.07;;;17.60;99.90;;;;;;5016102;28;20313;-82
2022/09/08 05:44:56;;;;;;;16.60;11.80;;;17.60;99.90;;;;;;5015911;28;20257;-82
2022/09/08 05:47:25;;;;;;;20.05;12.35;;;17.60;99.90;;;;;;5015829;28;20203;-83
2022/09/08 05:49:52;;;;;;;14.27;10.77;;;17.60;99.90;;;;;;5016213;28;20210;-81
2022/09/08 05:52:19;;;;;;;14.25;11.50;;;17.60;99.90;;;;;;5007808;28;20226;-84
2022/09/08 05:54:46;;;;;;;17.25;11.88;;;17.70;99.90;;;;;;5017492;28;20282;-84
2022/09/08 05:57:14;;;;;;;21.60;12.07;;;17.60;99.90;;;;;;5017268;28;20302;-84
2022/09/08 05:59:42;;;;;;;15.68;10.73;;;17.60;99.90;;;;;;4997717;28;20294;-84
2022/09/08 06:02:09;;;;;;;20.15;11.98;;;17.60;99.90;;;;;;4997844;28;20516;-83
2022/09/08 06:04:37;;;;;;;20.08;13.05;;;17.60;99.90;;;;;;5014115;28;20225;-83
2022/09/08 06:07:04;;;;;;;15.70;10.50;;;17.60;99.90;;;;;;5014902;28;20210;-84
2022/09/08 06:09:31;;;;;;;19.38;12.27;;;17.60;99.90;;;;;;5015481;28;20481;-82
2022/09/08 06:11:58;;;;;;;14.00;10.38;;;17.60;99.90;;;;;;5015375;28;20569;-81
2022/09/08 06:14:25;;;;;;;15.65;11.60;;;17.60;99.90;;;;;;5014964;28;20540;-85
2022/09/08 06:16:51;;;;;;;17.08;11.63;;;17.50;99.90;;;;;;5012718;28;20208;-81
2022/09/08 06:19:18;;;;;;;14.90;9.98;;;17.50;99.90;;;;;;5006211;28;20283;-82
2022/09/08 06:21:47;;;;;;;11.68;8.95;;;17.50;99.90;;;;;;5022047;28;20337;-81
2022/09/08 06:24:14;;;;;;;10.50;7.72;;;17.50;99.90;;;;;;5035203;28;20454;-81
2022/09/08 06:27:01;;;;;;;10.05;7.15;;;17.50;99.90;;;;;;5034769;28;20425;-82
2022/09/08 06:29:39;;;;;;;10.00;6.78;;;17.50;99.90;;;;;;5020643;28;20222;-84
2022/09/08 06:32:19;;;;;;;8.05;6.57;;;17.40;99.90;;;;;;4997122;28;20190;-85
2022/09/08 06:34:52;;;;;;;10.43;6.60;;;17.40;99.90;;;;;;4995718;28;20490;-82
2022/09/08 06:37:30;;;;;;;9.05;6.00;;;17.40;99.90;;;;;;5016721;28;20347;-82
2022/09/08 06:40:03;;;;;;;7.75;5.20;;;17.40;99.90;;;;;;5035269;28;20504;-82
2022/09/08 06:42:38;;;;;;;10.43;5.50;;;17.40;99.90;;;;;;5035076;28;20292;-86
2022/09/08 06:45:11;;;;;;;6.65;4.55;;;17.30;99.90;;;;;;5025334;28;20214;-84
2022/09/08 06:47:43;;;;;;;8.57;4.25;;;17.30;99.90;;;;;;5016592;28;20659;-85
2022/09/08 06:50:15;;;;;;;6.47;4.32;;;17.30;99.90;;;;;;5016486;28;20491;-84
2022/09/08 06:52:46;;;;;;;9.38;5.07;;;17.20;99.90;;;;;;5016404;28;20195;-84
2022/09/08 06:55:21;;;;;;;9.57;5.60;;;17.30;99.90;;;;;;5016112;28;20196;-85
2022/09/08 06:57:57;;;;;;;7.25;4.30;;;17.30;99.90;;;;;;5019678;28;20210;-84
2022/09/08 07:00:28;;;;;;;7.57;4.50;;;17.30;99.90;;;;;;5033011;28;20222;-84
2022/09/08 07:03:06;;;;;;;8.98;5.38;;;17.30;99.90;;;;;;5025290;28;20210;-84
2022/09/08 07:05:57;;;;;;;10.00;4.97;;;17.30;99.90;;;;;;5021785;28;20611;-84
2022/09/08 07:08:59;;;;;;;7.10;4.18;;;17.30;99.90;;;;;;5014761;28;20215;-85
2022/09/08 07:11:47;;;;;;;7.72;5.03;;;17.30;99.90;;;;;;5013835;28;20215;-83
2022/09/08 07:14:38;;;;;;;6.65;4.55;;;17.30;99.90;;;;;;5015695;28;20650;-84
2022/09/08 07:17:10;;;;;;;6.57;4.35;;;17.30;99.90;;;;;;5015162;28;20198;-82
2022/09/08 07:19:48;;;;;;;11.60;4.90;;;17.30;99.90;;;;;;4999077;28;20216;-83
2022/09/08 07:22:22;;;;;;;6.80;4.93;;;17.30;99.90;;;;;;5030632;28;20257;-84
2022/09/08 07:24:54;;;;;;;6.78;3.88;;;17.30;99.90;;;;;;5033544;28;20204;-83
2022/09/08 07:27:21;;;;;;;5.57;3.13;;;17.30;99.90;;;;;;4995400;28;20200;-83
2022/09/08 07:29:51;;;;;;;4.85;3.50;;;17.30;99.90;;;;;;4996509;28;20243;-84
2022/09/08 07:32:21;;;;;;;7.03;4.07;;;17.30;99.90;;;;;;5014900;28;20195;-84
2022/09/08 07:34:58;;;;;;;5.35;3.15;;;17.30;99.90;;;;;;5014549;28;20227;-83
2022/09/08 07:37:28;;;;;;;7.93;3.40;;;17.20;99.90;;;;;;5013684;28;20513;-83
2022/09/08 07:40:02;;;;;;;3.88;2.90;;;17.20;99.90;;;;;;5014196;28;20203;-82
2022/09/08 07:42:29;;;;;;;8.35;3.25;;;17.30;99.90;;;;;;5014105;28;20534;-84
2022/09/08 07:44:59;;;;;;;4.28;3.35;;;17.30;99.90;;;;;;5014309;28;20523;-83
2022/09/08 07:47:36;;;;;;;4.60;3.47;;;17.30;99.90;;;;;;5014634;28;20644;-83
2022/09/08 07:50:15;;;;;;;6.82;4.28;;;17.40;99.90;;;;;;5021114;28;20217;-82
2022/09/08 07:52:51;;;;;;;6.30;4.07;;;17.40;99.90;;;;;;5033631;28;20534;-83
2022/09/08 07:55:26;;;;;;;8.25;4.95;;;17.40;99.90;;;;;;5034175;28;20202;-82
2022/09/08 07:58:04;;;;;;;7.55;4.32;;;17.40;99.90;;;;;;5028843;28;20302;-82
2022/09/08 08:00:41;;;;;;;6.10;4.70;;;17.40;99.90;;;;;;5013546;28;20230;-82
2022/09/08 08:03:23;;;;;;;5.95;4.50;;;17.50;99.90;;;;;;5013253;28;20199;-81
2022/09/08 08:05:58;;;;;;;5.55;4.50;;;17.50;99.90;;;;;;5013722;28;20627;-82
2022/09/08 08:08:33;;;;;;;8.85;5.10;;;17.50;99.90;;;;;;5013324;28;20222;-82
2022/09/08 08:11:09;;;;;;;9.85;5.70;;;17.50;99.90;;;;;;5013235;28;20207;-81
2022/09/08 08:13:58;;;;;;;6.22;5.07;;;17.60;99.90;;;;;;5012743;28;20211;-83
2022/09/08 08:16:38;;;;;;;10.25;6.53;;;17.60;99.90;;;;;;5013369;28;20595;-82
2022/09/08 08:19:18;;;;;;;8.23;6.55;;;17.60;99.90;;;;;;5013060;28;20191;-82
2022/09/08 08:21:49;;;;;;;7.93;6.70;;;17.60;99.90;;;;;;5028474;28;20209;-80
2022/09/08 08:24:26;;;;;;;8.25;7.40;;;17.60;99.90;;;;;;5032638;28;20216;-81
2022/09/08 08:27:01;;;;;;;9.18;8.32;;;17.60;99.90;;;;;;5030617;28;20543;-82
2022/09/08 08:29:45;;;;;;;11.35;9.63;;;17.70;99.90;;;;;;5032337;28;20218;-82
2022/09/08 08:32:17;;;;;;;9.90;8.80;;;17.70;99.90;;;;;;5030903;28;20198;-81
2022/09/08 08:34:49;;;;;;;11.02;9.05;;;17.70;99.90;;;;;;4992302;28;20634;-81
2022/09/08 08:37:21;;;;;;;12.30;11.10;;;17.80;99.90;;;;;;4996729;28;20605;-81
2022/09/08 08:39:52;;;;;;;10.65;9.55;;;17.80;99.90;;;;;;5032585;28;20203;-80
2022/09/08 08:42:38;;;;;;;10.65;9.65;;;17.80;99.90;;;;;;5018385;28;20793;-79
2022/09/08 08:45:25;;;;;;;11.55;10.43;;;17.90;99.90;;;;;;5011661;28;20246;-80
2022/09/08 08:48:03;;;;;;;12.52;11.27;;;17.90;99.90;;;;;;5011781;28;20199;-80
2022/09/08 08:51:09;;;;;;;16.30;14.60;;;18.00;99.90;;;;;;5012343;28;20210;-80
2022/09/08 08:53:56;;;;;;;16.10;14.05;;;18.00;99.90;;;;;;4983636;28;20234;-79
2022/09/08 08:56:29;;;;;;;15.02;13.63;;;18.00;99.90;;;;;;5027820;28;20658;-80
2022/09/08 08:59:29;;;;;;;15.88;13.95;;;18.00;99.90;;;;;;5011018;28;20211;-81
2022/09/08 09:02:16;;;;;;;16.35;14.35;;;18.10;99.90;;;;;;5010636;28;20217;-79
2022/09/08 09:04:57;;;;;;;17.83;14.27;;;18.20;99.90;;;;;;5011632;28;20207;-80
2022/09/08 09:08:03;;;;;;;15.55;13.95;;;18.10;99.90;;;;;;5027997;28;20690;-79
2022/09/08 09:10:50;;;;;;;16.15;14.55;;;18.10;99.90;;;;;;5029842;28;20690;-80
2022/09/08 09:13:34;;;;;;;16.33;14.55;;;18.20;99.90;;;;;;5021075;28;20570;-80
2022/09/08 09:16:34;;;;;;;16.58;14.80;;;18.20;99.90;;;;;;5011153;28;20208;-79
2022/09/08 09:19:25;;;;;;;17.80;15.82;;;18.40;99.90;;;;;;5011110;28;20210;-80
2022/09/08 09:21:54;;;;;;;16.30;14.63;;;18.60;99.90;;;;;;5024166;28;20305;-79
2022/09/08 09:24:39;;;;;;;17.13;15.48;;;18.90;99.90;;;;;;5028856;28;20216;-78
2022/09/08 09:27:18;;;;;;;18.50;16.73;;;19.30;99.90;;;;;;5030909;28;20221;-79
2022/09/08 09:29:44;;;;;;;16.20;14.80;;;19.70;99.90;;;;;;5012072;28;20266;-78
2022/09/08 09:32:46;;;;;;;16.08;14.48;;;20.00;99.90;;;;;;5011345;28;20215;-78
2022/09/08 09:35:22;;;;;;;14.32;12.80;;;20.30;99.90;;;;;;5011063;28;20226;-80
2022/09/08 09:38:19;;;;;;;13.43;11.18;;;20.30;99.90;;;;;;5010478;28;20217;-80
2022/09/08 09:41:16;;;;;;;11.32;9.98;;;20.40;99.90;;;;;;5011084;28;20302;-79
2022/09/08 09:43:55;;;;;;;9.93;8.90;;;20.60;99.90;;;;;;5022611;28;20623;-79
2022/09/08 09:46:56;;;;;;;9.13;7.28;;;20.70;99.90;;;;;;5015223;28;20211;-79
2022/09/08 09:49:55;;;;;;;6.25;5.70;;;20.60;99.90;;;;;;5010472;28;20211;-79
2022/09/08 09:52:31;;;;;;;5.93;5.15;;;20.60;99.90;;;;;;5009949;28;20220;-79
2022/09/08 09:55:18;;;;;;;5.00;4.55;;;20.30;99.90;;;;;;5010707;28;20223;-79
2022/09/08 09:58:27;;;;;;;5.10;4.32;;;20.20;99.90;;;;;;5011013;28;20298;-79
2022/09/08 10:01:40;;;;;;;6.05;4.90;;;20.10;99.90;;;;;;5018187;28;20206;-79
2022/09/08 10:04:56;;;;;;;5.70;4.00;;;20.10;99.90;;;;;;5019981;28;20237;-79
2022/09/08 10:08:00;;;;;;;5.20;3.55;;;20.20;99.90;;;;;;5010684;28;20254;-80
2022/09/08 10:10:42;;;;;;;4.68;4.07;;;20.20;99.90;;;;;;5009568;28;20603;-80
2022/09/08 10:13:31;;;;;;;4.43;3.97;;;20.40;99.90;;;;;;4990904;28;20211;-79
2022/09/08 10:16:35;;;;;;;5.63;4.25;;;20.60;99.90;;;;;;5025053;28;20615;-80
2022/09/08 10:19:30;;;;;;;5.00;3.80;;;20.90;99.90;;;;;;5030599;28;20219;-79
2022/09/08 10:22:35;;;;;;;6.35;4.32;;;21.10;99.90;;;;;;5021735;28;20217;-80
2022/09/08 10:25:32;;;;;;;6.50;4.95;;;21.30;99.90;;;;;;5014782;28;20499;-78
2022/09/08 10:28:31;;;;;;;5.30;4.40;;;21.60;99.90;;;;;;5014633;28;20273;-80
2022/09/08 10:31:41;;;;;;;5.75;4.75;;;21.80;99.90;;;;;;5034348;28;20218;-78
2022/09/08 10:34:28;;;;;;;6.80;4.68;;;22.00;99.90;;;;;;5033980;28;20233;-79
2022/09/08 10:37:03;;;;;;;4.80;3.95;;;22.20;99.90;;;;;;5018696;28;20211;-79
2022/09/08 10:39:47;;;;;;;8.15;3.72;;;22.20;99.90;;;;;;5014851;28;20195;-79
2022/09/08 10:42:44;;;;;;;4.55;3.50;;;22.10;99.90;;;;;;5012030;28;20281;-79
2022/09/08 10:45:32;;;;;;;4.65;3.25;;;22.00;99.90;;;;;;5014914;28;20195;-80
2022/09/08 10:48:36;;;;;;;5.25;3.47;;;21.90;99.90;;;;;;5013767;28;20600;-78
2022/09/08 10:51:29;;;;;;;4.65;3.47;;;21.70;99.90;;;;;;4994643;28;20231;-81
2022/09/08 10:54:16;;;;;;;6.07;3.47;;;21.60;99.90;;;;;;4995072;28;20204;-79
2022/09/08 10:56:46;;;;;;;3.90;3.08;;;21.50;99.90;;;;;;5012293;28;20211;-76
2022/09/08 10:59:43;;;;;;;5.10;2.70;;;21.40;99.90;;;;;;5014709;28;20202;-80
2022/09/08 11:02:14;;;;;;;7.60;3.13;;;21.40;99.90;;;;;;5013418;28;20215;-81
2022/09/08 11:05:14;;;;;;;5.38;2.97;;;21.40;99.90;;;;;;5013332;28;20195;-80
2022/09/08 11:08:10;;;;;;;3.63;2.60;;;21.50;99.90;;;;;;5015158;28;20183;-79
2022/09/08 11:11:07;;;;;;;5.15;2.25;;;21.60;99.90;;;;;;4994482;28;20232;-80
2022/09/08 11:13:40;;;;;;;5.55;2.38;;;21.70;99.90;;;;;;4993846;28;20211;-80
2022/09/08 11:16:38;;;;;;;4.93;2.25;;;22.00;99.90;;;;;;4998262;28;20211;-83
2022/09/08 11:19:32;;;;;;;5.45;2.58;;;22.30;99.90;;;;;;5014243;28;20250;-81
2022/09/08 11:22:20;;;;;;;7.38;2.22;;;22.30;99.90;;;;;;5010935;28;20231;-80
2022/09/08 11:24:59;;;;;;;5.13;2.15;;;22.30;99.90;;;;;;5013330;28;20552;-81
2022/09/08 11:27:37;;;;;;;6.13;2.15;;;22.20;99.90;;;;;;5031693;28;20210;-80
2022/09/08 11:30:19;;;;;;;5.43;1.98;;;22.00;99.90;;;;;;5033149;28;20233;-80
2022/09/08 11:32:57;;;;;;;4.43;1.80;;;22.00;99.90;;;;;;5014261;28;20199;-79
2022/09/08 11:35:53;;;;;;;4.80;1.70;;;22.10;99.90;;;;;;5013410;28;20231;-82
2022/09/08 11:38:53;;;;;;;8.70;2.13;;;22.50;99.90;;;;;;4996174;28;20203;-82
2022/09/08 11:41:32;;;;;;;6.38;1.70;;;22.60;99.90;;;;;;5010702;28;20277;-80
2022/09/08 11:44:17;;;;;;;5.50;1.90;;;22.70;99.90;;;;;;5012808;28;20222;-84
2022/09/08 11:47:10;;;;;;;7.18;2.10;;;22.90;99.90;;;;;;5022634;28;20599;-84
2022/09/08 11:50:14;;;;;;;6.93;2.28;;;23.10;99.90;;;;;;5033864;28;20194;-82
2022/09/08 11:53:12;;;;;;;5.63;1.70;;;23.30;99.90;;;;;;5030090;28;20198;-83
2022/09/08 11:56:11;;;;;;;6.93;2.08;;;23.50;99.90;;;;;;5010937;28;20221;-83
2022/09/08 11:58:50;;;;;;;8.00;2.10;;;23.60;99.90;;;;;;5013506;28;20192;-83
2022/09/08 12:01:43;;;;;;;7.32;2.30;;;23.70;99.90;;;;;;4994283;28;20227;-84
2022/09/08 12:04:41;;;;;;;4.80;1.75;;;23.70;99.90;;;;;;5006208;28;20630;-81
2022/09/08 12:07:39;;;;;;;3.05;1.50;;;23.80;99.90;;;;;;5013165;28;20261;-81
2022/09/08 12:10:50;;;;;;;6.93;2.15;;;23.80;99.90;;;;;;4991555;28;20477;-82
2022/09/08 12:13:29;;;;;;;3.75;1.58;;;24.00;99.90;;;;;;4992130;28;20200;-82
2022/09/08 12:16:35;;;;;;;5.65;1.73;;;24.10;99.90;;;;;;4993752;28;20212;-81
2022/09/08 12:19:19;;;;;;;7.03;2.13;;;24.30;99.90;;;;;;4972806;28;20207;-83
2022/09/08 12:22:04;;;;;;;3.25;1.55;;;24.30;99.90;;;;;;4993516;28;20765;-82
2022/09/08 12:24:44;;;;;;;8.75;2.50;;;24.40;99.90;;;;;;4993643;28;20199;-82
2022/09/08 12:27:22;;;;;;;8.18;2.03;;;24.40;99.90;;;;;;5006368;28;20266;-81
2022/09/08 12:30:11;;;;;;;8.70;2.50;;;24.60;99.90;;;;;;5013117;28;20223;-84
2022/09/08 12:33:00;;;;;;;5.88;2.35;;;24.50;99.90;;;;;;5011910;28;20411;-83
2022/09/08 12:35:31;;;;;;;6.53;2.08;;;24.50;99.90;;;;;;5012617;28;20211;-80
2022/09/08 12:38:13;;;;;;;4.55;1.70;;;24.50;99.90;;;;;;5026959;28;20261;-80
2022/09/08 12:40:57;;;;;;;4.97;2.42;;;24.50;99.90;;;;;;5029096;28;20471;-80
2022/09/08 12:43:26;;;;;;;7.93;2.55;;;24.60;99.90;;;;;;5031503;28;20227;-80
2022/09/08 12:46:26;;;;;;;4.15;1.80;;;24.60;99.90;;;;;;5019850;22;20237;-79
2022/09/08 12:49:09;;;;;;;11.95;2.72;;;24.60;99.90;;;;;;5018899;28;20655;-80
2022/09/08 12:51:37;;;;;;;7.55;2.70;;;24.40;99.90;;;;;;5037451;28;20297;-79
2022/09/08 12:54:27;;;;;;;8.10;2.13;;;24.30;99.90;;;;;;5041499;28;20799;-78
2022/09/08 12:57:35;;;;;;;7.72;2.47;;;24.30;99.90;;;;;;5042951;28;20731;-78
2022/09/08 13:00:09;;;;;;;6.78;2.35;;;24.40;99.90;;;;;;5045074;28;20182;-79
2022/09/08 13:03:05;;;;;;;8.40;2.45;;;24.40;99.90;;;;;;5043980;28;20186;-79
2022/09/08 13:05:56;;;;;;;9.27;2.10;;;24.30;99.90;;;;;;5011546;28;20242;-78
2022/09/08 13:08:34;;;;;;;6.38;2.20;;;24.30;99.90;;;;;;5020499;22;20611;-79
2022/09/08 13:11:08;;;;;;;9.55;2.08;;;24.30;99.90;;;;;;5033633;28;20221;-79
2022/09/08 13:13:38;;;;;;;8.05;2.15;;;24.30;99.90;;;;;;5021334;28;20253;-78
2022/09/08 13:16:26;;;;;;;6.32;2.03;;;24.30;99.90;;;;;;5027751;28;20289;-78
2022/09/08 13:19:08;;;;;;;9.43;2.30;;;24.30;99.90;;;;;;5011357;28;20206;-79
2022/09/08 13:21:58;;;;;;;8.02;1.83;;;24.30;99.90;;;;;;5039682;28;20220;-79
2022/09/08 13:24:35;;;;;;;6.20;2.05;;;24.30;99.90;;;;;;5050738;28;20212;-80
2022/09/08 13:27:14;;;;;;;6.47;2.30;;;24.30;99.90;;;;;;5034325;28;20236;-78
2022/09/08 13:30:09;;;;;;;6.60;2.40;;;24.20;99.90;;;;;;5040001;28;20708;-79
2022/09/08 13:33:06;;;;;;;6.35;2.17;;;24.30;99.90;;;;;;5023445;28;20274;-80
2022/09/08 13:35:51;;;;;;;4.45;1.83;;;24.30;99.90;;;;;;5025290;28;20218;-79
2022/09/08 13:38:36;;;;;;;8.32;2.42;;;24.30;99.90;;;;;;5018476;28;20213;-80